createdAt,value
2023-05-05T00:02:02.475Z,101406.25
2023-05-05T00:04:28.813Z,101410.75
2023-05-05T00:06:55.153Z,101407.53
2023-05-05T00:09:21.538Z,101411.59
2023-05-05T00:11:47.858Z,101400.91
2023-05-05T00:14:14.287Z,101393.22
2023-05-05T00:16:40.645Z,101385.75
2023-05-05T00:19:07.032Z,101393.06
2023-05-05T00:21:33.411Z,101402.56
2023-05-05T00:23:59.783Z,101384.22
2023-05-05T00:26:26.094Z,101381.56
2023-05-05T00:28:52.483Z,101401.56
2023-05-05T00:31:18.793Z,101402.59
2023-05-05T00:33:45.156Z,101397.53
2023-05-05T00:36:11.572Z,101399.97
2023-05-05T00:38:37.911Z,101383.00
2023-05-05T00:41:04.389Z,101394.72
2023-05-05T00:43:30.721Z,101386.22
2023-05-05T00:46:02.048Z,101409.44
2023-05-05T00:48:30.397Z,101392.69
2023-05-05T00:50:56.919Z,101396.13
2023-05-05T00:53:23.289Z,101381.75
2023-05-05T00:55:49.815Z,101382.59
2023-05-05T00:58:16.813Z,101395.31
2023-05-05T01:00:43.132Z,101381.75
2023-05-05T01:03:09.662Z,101383.59
2023-05-05T01:05:55.710Z,101384.97
2023-05-05T01:08:37.318Z,101396.09
2023-05-05T01:11:17.199Z,101392.50
2023-05-05T01:14:14.356Z,101384.19
2023-05-05T01:16:50.978Z,101377.72
2023-05-05T01:19:35.895Z,101388.41
2023-05-05T01:22:06.956Z,101389.78
2023-05-05T01:24:55.782Z,101390.81
2023-05-05T01:27:47.508Z,101385.75
2023-05-05T01:30:29.121Z,101388.78
2023-05-05T01:33:03.709Z,101378.44
2023-05-05T01:35:37.936Z,101392.22
2023-05-05T01:38:21.145Z,101366.34
2023-05-05T01:40:57.502Z,101384.31
2023-05-05T01:43:27.783Z,101401.50
2023-05-05T01:45:55.715Z,101410.38
2023-05-05T01:48:23.455Z,101394.81
2023-05-05T01:50:52.785Z,101388.34
2023-05-05T01:53:22.305Z,101410.56
2023-05-05T01:55:50.442Z,101402.06
2023-05-05T01:58:17.377Z,101396.00
2023-05-05T02:00:44.390Z,101395.16
2023-05-05T02:03:13.733Z,101405.28
2023-05-05T02:05:41.642Z,101417.75
2023-05-05T02:08:09.416Z,101418.00
2023-05-05T02:10:37.985Z,101422.25
2023-05-05T02:13:04.868Z,101418.41
2023-05-05T02:15:31.712Z,101421.47
2023-05-05T02:18:00.148Z,101429.72
2023-05-05T02:20:28.018Z,101427.72
2023-05-05T02:22:54.454Z,101420.06
2023-05-05T02:25:21.539Z,101415.59
2023-05-05T02:27:49.191Z,101421.66
2023-05-05T02:30:19.650Z,101428.72
2023-05-05T02:32:51.514Z,101415.19
2023-05-05T02:35:22.364Z,101420.06
2023-05-05T02:37:56.088Z,101416.03
2023-05-05T02:40:26.226Z,101407.13
2023-05-05T02:42:55.807Z,101416.03
2023-05-05T02:45:24.751Z,101417.66
2023-05-05T02:47:51.069Z,101417.84
2023-05-05T02:50:17.896Z,101416.44
2023-05-05T02:52:45.668Z,101417.47
2023-05-05T02:55:12.863Z,101413.03
2023-05-05T02:58:07.868Z,101414.06
2023-05-05T03:00:41.187Z,101404.13
2023-05-05T03:03:37.139Z,101397.09
2023-05-05T03:06:19.569Z,101393.84
2023-05-05T03:09:13.885Z,101391.03
2023-05-05T03:11:54.993Z,101386.34
2023-05-05T03:14:22.107Z,101376.28
2023-05-05T03:16:49.317Z,101370.00
2023-05-05T03:19:20.185Z,101371.81
2023-05-05T03:21:47.581Z,101395.03
2023-05-05T03:24:13.908Z,101409.56
2023-05-05T03:26:40.279Z,101413.78
2023-05-05T03:29:06.743Z,101412.75
2023-05-05T03:31:33.360Z,101421.22
2023-05-05T03:33:59.717Z,101420.38
2023-05-05T03:36:27.859Z,101426.41
2023-05-05T03:38:55.598Z,101429.44
2023-05-05T03:41:22.797Z,101426.38
2023-05-05T03:43:49.405Z,101437.25
2023-05-05T03:46:15.979Z,101445.75
2023-05-05T03:48:42.958Z,101449.75
2023-05-05T03:51:09.378Z,101443.06
2023-05-05T03:53:35.905Z,101467.13
2023-05-05T03:56:02.253Z,101457.34
2023-05-05T03:58:28.579Z,101465.06
2023-05-05T04:00:54.930Z,101467.91
2023-05-05T04:03:21.375Z,101462.41
2023-05-05T04:05:47.964Z,101464.44
2023-05-05T04:08:14.309Z,101470.75
2023-05-05T04:10:40.677Z,101484.09
2023-05-05T04:13:06.985Z,101462.25
2023-05-05T04:15:33.355Z,101453.59
2023-05-05T04:17:59.786Z,101475.63
2023-05-05T04:20:26.250Z,101482.44
2023-05-05T04:22:52.825Z,101498.97
2023-05-05T04:25:19.236Z,101501.19
2023-05-05T04:27:45.594Z,101502.16
2023-05-05T04:30:12.947Z,101519.34
2023-05-05T04:32:39.275Z,101518.31
2023-05-05T04:35:06.061Z,101517.75
2023-05-05T04:37:32.388Z,101510.88
2023-05-05T04:39:58.765Z,101509.47
2023-05-05T04:42:25.113Z,101515.19
2023-05-05T04:44:51.463Z,101509.31
2023-05-05T04:47:17.780Z,101515.63
2023-05-05T04:49:44.118Z,101515.06
2023-05-05T04:52:12.327Z,101510.09
2023-05-05T04:54:38.724Z,101526.50
2023-05-05T04:57:05.144Z,101526.31
2023-05-05T04:59:31.446Z,101506.16
2023-05-05T05:01:57.826Z,101517.28
2023-05-05T05:04:25.286Z,101527.25
2023-05-05T05:06:51.631Z,101523.41
2023-05-05T05:09:18.023Z,101525.28
2023-05-05T05:11:44.413Z,101529.13
2023-05-05T05:14:10.783Z,101530.16
2023-05-05T05:16:37.822Z,101541.31
2023-05-05T05:19:04.228Z,101542.31
2023-05-05T05:21:30.546Z,101533.16
2023-05-05T05:23:57.031Z,101540.31
2023-05-05T05:26:23.396Z,101534.41
2023-05-05T05:28:49.687Z,101540.41
2023-05-05T05:31:16.053Z,101537.25
2023-05-05T05:33:42.345Z,101540.06
2023-05-05T05:36:08.862Z,101549.06
2023-05-05T05:38:35.207Z,101566.59
2023-05-05T05:41:05.479Z,101557.78
2023-05-05T05:43:31.825Z,101557.63
2023-05-05T05:45:58.486Z,101554.00
2023-05-05T05:48:24.898Z,101570.00
2023-05-05T05:50:51.253Z,101556.53
2023-05-05T05:53:17.695Z,101561.34
2023-05-05T05:55:46.150Z,101562.13
2023-05-05T05:58:12.523Z,101566.97
2023-05-05T06:00:38.826Z,101572.75
2023-05-05T06:03:05.306Z,101558.63
2023-05-05T06:05:32.280Z,101574.13
2023-05-05T06:07:58.604Z,101568.44
2023-05-05T06:10:27.373Z,101564.72
2023-05-05T06:12:54.805Z,101558.56
2023-05-05T06:15:21.158Z,101560.34
2023-05-05T06:17:47.502Z,101551.06
2023-05-05T06:20:13.918Z,101561.03
2023-05-05T06:22:40.261Z,101553.34
2023-05-05T06:25:07.056Z,101572.00
2023-05-05T06:27:33.412Z,101565.78
2023-05-05T06:29:59.730Z,101577.84
2023-05-05T06:32:26.162Z,101571.88
2023-05-05T06:34:52.476Z,101587.69
2023-05-05T06:37:18.784Z,101584.88
2023-05-05T06:39:45.129Z,101588.72
2023-05-05T06:42:11.460Z,101579.06
2023-05-05T06:44:37.778Z,101575.22
2023-05-05T06:47:04.191Z,101584.56
2023-05-05T06:49:30.565Z,101583.41
2023-05-05T06:51:56.906Z,101579.88
2023-05-05T06:54:23.354Z,101585.88
2023-05-05T06:56:49.675Z,101582.53
2023-05-05T06:59:16.023Z,101589.53
2023-05-05T07:01:42.373Z,101590.13
2023-05-05T07:04:08.716Z,101588.41
2023-05-05T07:06:35.127Z,101588.97
2023-05-05T07:09:01.475Z,101590.41
2023-05-05T07:11:27.792Z,101593.78
2023-05-05T07:13:54.136Z,101595.47
2023-05-05T07:16:20.520Z,101590.66
2023-05-05T07:18:46.895Z,101598.94
2023-05-05T07:21:13.234Z,101595.91
2023-05-05T07:23:39.568Z,101610.28
2023-05-05T07:26:06.041Z,101610.75
2023-05-05T07:28:32.354Z,101611.88
2023-05-05T07:30:58.648Z,101612.69
2023-05-05T07:33:24.954Z,101612.88
2023-05-05T07:35:51.347Z,101611.72
2023-05-05T07:38:17.658Z,101616.66
2023-05-05T07:40:44.038Z,101616.94
2023-05-05T07:43:10.372Z,101618.59
2023-05-05T07:45:36.737Z,101614.50
2023-05-05T07:48:03.317Z,101622.66
2023-05-05T07:50:29.680Z,101625.06
2023-05-05T07:53:02.452Z,101629.28
2023-05-05T07:55:39.788Z,101631.38
2023-05-05T07:58:06.104Z,101625.88
2023-05-05T08:00:32.484Z,101615.53
2023-05-05T08:02:58.893Z,101624.13
2023-05-05T08:05:25.233Z,101617.97
2023-05-05T08:07:51.573Z,101618.97
2023-05-05T08:10:17.956Z,101617.44
2023-05-05T08:12:44.350Z,101614.75
2023-05-05T08:15:11.205Z,101616.28
2023-05-05T08:17:48.176Z,101610.28
2023-05-05T08:20:15.941Z,101611.16
2023-05-05T08:22:42.597Z,101613.53
2023-05-05T08:25:09.838Z,101617.66
2023-05-05T08:27:37.681Z,101623.97
2023-05-05T08:30:04.868Z,101619.88
2023-05-05T08:32:31.908Z,101611.13
2023-05-05T08:34:58.243Z,101620.84
2023-05-05T08:37:24.547Z,101620.31
2023-05-05T08:39:50.837Z,101621.13
2023-05-05T08:42:29.077Z,101621.47
2023-05-05T08:45:02.363Z,101634.38
2023-05-05T08:47:28.839Z,101634.13
2023-05-05T08:49:56.734Z,101645.13
2023-05-05T08:52:24.351Z,101634.19
2023-05-05T08:54:55.231Z,101637.03
2023-05-05T08:57:32.375Z,101634.59
2023-05-05T09:00:00.483Z,101632.88
2023-05-05T09:02:29.293Z,101630.13
2023-05-05T09:04:56.218Z,101624.47
2023-05-05T09:07:23.013Z,101623.13
2023-05-05T09:09:49.881Z,101629.47
2023-05-05T09:12:16.225Z,101633.50
2023-05-05T09:14:42.608Z,101634.38
2023-05-05T09:17:25.564Z,101628.91
2023-05-05T09:20:06.780Z,101633.38
2023-05-05T09:22:35.726Z,101643.25
2023-05-05T09:25:02.354Z,101628.78
2023-05-05T09:27:28.722Z,101626.56
2023-05-05T09:29:55.389Z,101633.25
2023-05-05T09:32:22.394Z,101630.66
2023-05-05T09:35:01.351Z,101619.50
2023-05-05T09:37:31.372Z,101625.75
2023-05-05T09:39:59.813Z,101634.97
2023-05-05T09:42:26.777Z,101626.47
2023-05-05T09:44:53.749Z,101624.50
2023-05-05T09:47:29.427Z,101631.97
2023-05-05T09:49:57.623Z,101636.00
2023-05-05T09:52:24.342Z,101631.88
2023-05-05T09:54:55.344Z,101624.00
2023-05-05T09:57:28.778Z,101633.94
2023-05-05T09:59:56.715Z,101631.94
2023-05-05T10:02:30.804Z,101625.69
2023-05-05T10:05:04.513Z,101628.13
2023-05-05T10:07:30.864Z,101620.31
2023-05-05T10:09:57.200Z,101610.25
2023-05-05T10:12:26.220Z,101624.16
2023-05-05T10:14:55.292Z,101614.84
2023-05-05T10:17:25.632Z,101614.66
2023-05-05T10:19:56.878Z,101622.56
2023-05-05T10:22:24.976Z,101624.88
2023-05-05T10:24:57.576Z,101606.28
2023-05-05T10:27:26.802Z,101604.63
2023-05-05T10:30:07.776Z,101603.63
2023-05-05T10:33:18.234Z,101605.31
2023-05-05T10:35:52.042Z,101584.78
2023-05-05T10:38:20.640Z,101594.44
2023-05-05T10:40:48.005Z,101594.16
2023-05-05T10:43:14.915Z,101598.47
2023-05-05T10:45:42.552Z,101594.44
2023-05-05T10:48:32.279Z,101593.06
2023-05-05T10:51:38.633Z,101595.72
2023-05-05T10:54:16.976Z,101582.81
2023-05-05T10:56:43.567Z,101587.94
2023-05-05T10:59:38.342Z,101592.28
2023-05-05T11:02:24.941Z,101587.81
2023-05-05T11:05:13.531Z,101582.47
2023-05-05T11:07:39.968Z,101577.69
2023-05-05T11:10:12.119Z,101573.19
2023-05-05T11:12:53.970Z,101582.88
2023-05-05T11:15:26.225Z,101581.28
2023-05-05T11:18:00.334Z,101574.06
2023-05-05T11:20:35.856Z,101583.28
2023-05-05T11:23:02.241Z,101589.44
2023-05-05T11:25:34.638Z,101592.78
2023-05-05T11:28:21.469Z,101583.25
2023-05-05T11:30:57.858Z,101598.22
2023-05-05T11:33:34.961Z,101604.28
2023-05-05T11:36:09.144Z,101609.13
2023-05-05T11:38:44.469Z,101615.66
2023-05-05T11:41:32.014Z,101610.06
2023-05-05T11:44:11.548Z,101602.84
2023-05-05T11:46:40.983Z,101612.13
2023-05-05T11:49:07.734Z,101622.88
2023-05-05T11:51:34.229Z,101629.31
2023-05-05T11:54:00.664Z,101631.41
2023-05-05T11:56:26.973Z,101626.50
2023-05-05T11:59:10.570Z,101639.94
2023-05-05T12:01:40.726Z,101636.19
2023-05-05T12:04:11.298Z,101637.88
2023-05-05T12:06:38.005Z,101640.06
2023-05-05T12:09:04.428Z,101641.00
2023-05-05T12:11:30.781Z,101655.75
2023-05-05T12:14:10.290Z,101661.84
2023-05-05T12:16:36.920Z,101662.25
2023-05-05T12:19:04.929Z,101666.22
2023-05-05T12:21:31.862Z,101686.97
2023-05-05T12:23:59.289Z,101706.50
2023-05-05T12:26:31.187Z,101708.41
2023-05-05T12:28:59.033Z,101690.22
2023-05-05T12:31:41.980Z,101697.72
2023-05-05T12:34:10.092Z,101700.97
2023-05-05T12:36:36.998Z,101704.06
2023-05-05T12:39:06.516Z,101710.34
2023-05-05T12:41:33.844Z,101709.75
2023-05-05T12:44:01.755Z,101699.19
2023-05-05T12:46:28.600Z,101697.13
2023-05-05T12:49:05.524Z,101703.84
2023-05-05T12:51:33.577Z,101701.03
2023-05-05T12:54:08.506Z,101696.97
2023-05-05T12:56:34.811Z,101713.16
2023-05-05T12:59:12.476Z,101702.00
2023-05-05T13:01:48.612Z,101714.56
2023-05-05T13:04:15.087Z,101729.72
2023-05-05T13:06:43.535Z,101724.06
2023-05-05T13:09:22.542Z,101724.25
2023-05-05T13:11:48.848Z,101739.03
2023-05-05T13:14:15.186Z,101739.88
2023-05-05T13:16:41.573Z,101740.75
2023-05-05T13:19:07.882Z,101728.59
2023-05-05T13:21:34.237Z,101736.31
2023-05-05T13:24:12.483Z,101734.31
2023-05-05T13:26:47.580Z,101731.28
2023-05-05T13:29:13.986Z,101726.84
2023-05-05T13:31:40.388Z,101731.50
2023-05-05T13:34:06.720Z,101714.50
2023-05-05T13:36:33.072Z,101711.44
2023-05-05T13:38:59.436Z,101713.28
2023-05-05T13:41:25.902Z,101699.75
2023-05-05T13:43:52.261Z,101696.13
2023-05-05T13:46:20.367Z,101706.44
2023-05-05T13:48:46.840Z,101712.09
2023-05-05T13:51:13.167Z,101704.38
2023-05-05T13:53:39.510Z,101699.50
2023-05-05T13:56:05.988Z,101698.72
2023-05-05T13:58:32.311Z,101702.19
2023-05-05T14:00:58.709Z,101695.53
2023-05-05T14:03:25.146Z,101693.50
2023-05-05T14:05:51.506Z,101695.88
2023-05-05T14:08:17.885Z,101691.59
2023-05-05T14:10:45.423Z,101691.00
2023-05-05T14:13:13.625Z,101695.00
2023-05-05T14:15:40.045Z,101691.44
2023-05-05T14:18:06.565Z,101694.00
2023-05-05T14:20:33.087Z,101704.19
2023-05-05T14:22:59.560Z,101696.00
2023-05-05T14:25:26.004Z,101693.25
2023-05-05T14:27:54.842Z,101690.72
2023-05-05T14:30:21.226Z,101687.97
2023-05-05T14:32:47.557Z,101696.94
2023-05-05T14:35:13.945Z,101686.91
2023-05-05T14:37:40.254Z,101685.56
2023-05-05T14:40:07.373Z,101683.34
2023-05-05T14:42:33.814Z,101689.41
2023-05-05T14:45:00.185Z,101686.16
2023-05-05T14:47:26.495Z,101691.63
2023-05-05T14:49:52.798Z,101683.94
2023-05-05T14:52:19.090Z,101688.50
2023-05-05T14:54:45.445Z,101692.19
2023-05-05T14:57:11.918Z,101694.63
2023-05-05T14:59:38.252Z,101692.53
2023-05-05T15:02:04.672Z,101679.41
2023-05-05T15:04:31.080Z,101687.44
2023-05-05T15:06:57.404Z,101682.66
2023-05-05T15:09:23.715Z,101682.34
2023-05-05T15:11:50.103Z,101670.91
2023-05-05T15:14:16.404Z,101666.34
2023-05-05T15:16:42.753Z,101657.16
2023-05-05T15:19:09.127Z,101642.00
2023-05-05T15:21:35.481Z,101637.72
2023-05-05T15:24:01.802Z,101624.38
2023-05-05T15:26:28.164Z,101625.41
2023-05-05T15:28:54.476Z,101636.13
2023-05-05T15:31:20.822Z,101631.28
2023-05-05T15:33:47.145Z,101623.69
2023-05-05T15:36:13.554Z,101617.13
2023-05-05T15:38:41.434Z,101615.28
2023-05-05T15:41:07.765Z,101605.03
2023-05-05T15:43:34.545Z,101588.47
2023-05-05T15:46:00.847Z,101587.16
2023-05-05T15:48:27.302Z,101581.97
2023-05-05T15:50:53.647Z,101577.81
2023-05-05T15:53:20.035Z,101593.47
2023-05-05T15:55:46.338Z,101587.69
2023-05-05T15:58:12.735Z,101580.00
2023-05-05T16:00:39.345Z,101595.31
2023-05-05T16:03:05.751Z,101603.44
2023-05-05T16:05:32.263Z,101603.91
2023-05-05T16:07:58.605Z,101606.38
2023-05-05T16:10:24.944Z,101609.94
2023-05-05T16:12:51.262Z,101619.44
2023-05-05T16:15:17.780Z,101618.50
2023-05-05T16:17:44.198Z,101615.97
2023-05-05T16:20:11.232Z,101598.94
2023-05-05T16:22:37.632Z,101594.69
2023-05-05T16:25:04.375Z,101588.81
2023-05-05T16:27:30.707Z,101597.44
2023-05-05T16:29:59.560Z,101600.38
2023-05-05T16:32:26.207Z,101612.59
2023-05-05T16:34:52.610Z,101605.69
2023-05-05T16:37:18.943Z,101615.28
2023-05-05T16:39:45.300Z,101620.00
2023-05-05T16:42:11.623Z,101628.41
2023-05-05T16:44:38.257Z,101620.34
2023-05-05T16:47:04.614Z,101628.41
2023-05-05T16:49:31.044Z,101630.13
2023-05-05T16:51:57.440Z,101636.34
2023-05-05T16:54:23.796Z,101623.47
2023-05-05T16:56:50.127Z,101625.41
2023-05-05T16:59:16.474Z,101630.31
2023-05-05T17:01:42.843Z,101612.31
2023-05-05T17:04:09.188Z,101625.50
2023-05-05T17:06:35.510Z,101615.75
2023-05-05T17:09:01.976Z,101610.78
2023-05-05T17:11:28.297Z,101604.66
2023-05-05T17:13:54.700Z,101621.88
2023-05-05T17:16:21.022Z,101613.00
2023-05-05T17:18:47.433Z,101605.75
2023-05-05T17:21:13.779Z,101620.72
2023-05-05T17:23:40.082Z,101607.44
2023-05-05T17:26:06.416Z,101610.88
2023-05-05T17:28:32.771Z,101610.56
2023-05-05T17:30:59.086Z,101616.59
2023-05-05T17:33:25.644Z,101611.69
2023-05-05T17:35:51.981Z,101620.91
2023-05-05T17:38:18.352Z,101619.78
2023-05-05T17:40:44.817Z,101617.66
2023-05-05T17:43:11.130Z,101616.25
2023-05-05T17:45:37.503Z,101630.78
2023-05-05T17:48:04.206Z,101627.34
2023-05-05T17:50:30.611Z,101622.03
2023-05-05T17:52:56.918Z,101636.88
2023-05-05T17:55:23.222Z,101634.44
2023-05-05T17:57:49.552Z,101639.41
2023-05-05T18:00:16.253Z,101640.88
2023-05-05T18:02:42.764Z,101644.28
2023-05-05T18:05:09.671Z,101630.41
2023-05-05T18:07:36.189Z,101637.16
2023-05-05T18:10:02.506Z,101639.66
2023-05-05T18:12:28.840Z,101645.84
2023-05-05T18:14:55.245Z,101637.56
2023-05-05T18:17:21.617Z,101646.06
2023-05-05T18:19:49.262Z,101655.97
2023-05-05T18:22:15.732Z,101647.09
2023-05-05T18:24:42.052Z,101645.13
2023-05-05T18:27:08.470Z,101646.06
2023-05-05T18:29:35.595Z,101657.00
2023-05-05T18:32:02.121Z,101656.06
2023-05-05T18:34:28.495Z,101652.69
2023-05-05T18:36:54.929Z,101639.94
2023-05-05T18:39:21.263Z,101649.41
2023-05-05T18:41:47.612Z,101645.28
2023-05-05T18:44:13.981Z,101656.50
2023-05-05T18:46:40.503Z,101651.56
2023-05-05T18:49:06.883Z,101649.56
2023-05-05T18:51:33.277Z,101647.19
2023-05-05T18:53:59.969Z,101653.31
2023-05-05T18:56:26.878Z,101653.84
2023-05-05T18:58:53.237Z,101643.81
2023-05-05T19:01:19.634Z,101650.81
2023-05-05T19:03:46.978Z,101658.16
2023-05-05T19:06:13.743Z,101646.47
2023-05-05T19:08:40.181Z,101646.13
2023-05-05T19:11:06.508Z,101653.22
2023-05-05T19:13:32.810Z,101653.06
2023-05-05T19:15:59.283Z,101657.97
2023-05-05T19:18:25.632Z,101660.84
2023-05-05T19:20:52.151Z,101666.53
2023-05-05T19:23:18.609Z,101677.72
2023-05-05T19:25:44.989Z,101683.16
2023-05-05T19:28:11.368Z,101684.41
2023-05-05T19:30:37.814Z,101681.78
2023-05-05T19:33:04.292Z,101680.13
2023-05-05T19:35:30.779Z,101667.78
2023-05-05T19:37:57.120Z,101680.34
2023-05-05T19:40:23.526Z,101689.66
2023-05-05T19:42:49.881Z,101675.84
2023-05-05T19:45:16.315Z,101685.97
2023-05-05T19:47:42.649Z,101685.34
2023-05-05T19:50:09.957Z,101676.44
2023-05-05T19:52:36.519Z,101679.00
2023-05-05T19:55:02.976Z,101686.69
2023-05-05T19:57:29.372Z,101681.38
2023-05-05T19:59:55.688Z,101683.16
2023-05-05T20:02:22.094Z,101674.44
2023-05-05T20:04:48.486Z,101692.22
2023-05-05T20:07:14.787Z,101679.63
2023-05-05T20:09:41.115Z,101683.66
2023-05-05T20:12:07.757Z,101683.22
2023-05-05T20:14:34.120Z,101682.72
2023-05-05T20:17:00.475Z,101685.09
2023-05-05T20:19:26.843Z,101684.28
2023-05-05T20:21:53.172Z,101695.97
2023-05-05T20:24:19.589Z,101678.31
2023-05-05T20:26:45.897Z,101692.63
2023-05-05T20:29:12.219Z,101693.22
2023-05-05T20:31:38.614Z,101691.72
2023-05-05T20:34:04.960Z,101699.00
2023-05-05T20:36:31.319Z,101693.91
2023-05-05T20:38:57.684Z,101692.06
2023-05-05T20:41:24.044Z,101685.19
2023-05-05T20:43:50.359Z,101700.09
2023-05-05T20:46:16.741Z,101695.59
2023-05-05T20:48:43.271Z,101691.09
2023-05-05T20:51:09.677Z,101694.31
2023-05-05T20:53:36.054Z,101685.38
2023-05-05T20:56:02.380Z,101688.75
2023-05-05T20:58:29.759Z,101698.25
2023-05-05T21:00:56.124Z,101696.97
2023-05-05T21:03:22.523Z,101677.88
2023-05-05T21:05:48.895Z,101697.31
2023-05-05T21:08:15.442Z,101692.81
2023-05-05T21:10:41.802Z,101697.59
2023-05-05T21:13:08.118Z,101683.34
2023-05-05T21:15:36.947Z,101692.19
2023-05-05T21:18:03.728Z,101697.00
2023-05-05T21:20:30.054Z,101689.06
2023-05-05T21:22:56.570Z,101694.75
2023-05-05T21:25:23.295Z,101690.88
2023-05-05T21:27:49.614Z,101685.63
2023-05-05T21:30:17.152Z,101687.63
2023-05-05T21:32:44.099Z,101687.25
2023-05-05T21:35:10.539Z,101693.13
2023-05-05T21:37:37.993Z,101692.03
2023-05-05T21:40:06.067Z,101687.19
2023-05-05T21:42:32.469Z,101683.31
2023-05-05T21:44:58.781Z,101679.88
2023-05-05T21:47:25.157Z,101683.47
2023-05-05T21:49:51.568Z,101680.78
2023-05-05T21:52:17.940Z,101693.50
2023-05-05T21:54:44.634Z,101691.78
2023-05-05T21:57:10.965Z,101692.16
2023-05-05T21:59:37.360Z,101699.63
2023-05-05T22:02:03.737Z,101691.06
2023-05-05T22:04:30.117Z,101680.34
2023-05-05T22:06:56.585Z,101686.84
2023-05-05T22:09:22.911Z,101691.25
2023-05-05T22:11:49.330Z,101688.44
2023-05-05T22:14:15.664Z,101674.09
2023-05-05T22:16:42.526Z,101682.84
2023-05-05T22:19:09.008Z,101675.00
2023-05-05T22:21:35.375Z,101688.97
2023-05-05T22:24:01.721Z,101674.63
2023-05-05T22:26:28.043Z,101675.44
2023-05-05T22:28:54.345Z,101671.53
2023-05-05T22:31:20.692Z,101675.53
2023-05-05T22:33:47.044Z,101683.22
2023-05-05T22:36:13.380Z,101682.75
2023-05-05T22:38:39.724Z,101689.81
2023-05-05T22:41:06.613Z,101682.50
2023-05-05T22:43:32.942Z,101686.94
2023-05-05T22:45:59.247Z,101694.97
2023-05-05T22:48:25.580Z,101690.63
2023-05-05T22:50:51.883Z,101679.88
2023-05-05T22:53:18.218Z,101679.25
2023-05-05T22:55:44.524Z,101676.53
2023-05-05T22:58:10.863Z,101674.19
2023-05-05T23:00:37.270Z,101667.34
2023-05-05T23:03:04.006Z,101670.47
2023-05-05T23:05:30.358Z,101666.78
2023-05-05T23:07:56.643Z,101668.41
2023-05-05T23:10:22.997Z,101672.03
2023-05-05T23:12:49.446Z,101674.34
2023-05-05T23:15:15.854Z,101662.63
2023-05-05T23:17:42.223Z,101660.97
2023-05-05T23:20:09.192Z,101673.25
2023-05-05T23:22:35.530Z,101669.22
2023-05-05T23:25:01.813Z,101676.69
2023-05-05T23:27:28.135Z,101678.31
2023-05-05T23:29:54.491Z,101670.38
2023-05-05T23:32:20.842Z,101679.50
2023-05-05T23:34:47.254Z,101678.66
2023-05-05T23:37:13.852Z,101670.19
2023-05-05T23:39:40.679Z,101668.56
2023-05-05T23:42:07.025Z,101658.09
2023-05-05T23:44:33.367Z,101681.56
2023-05-05T23:46:59.730Z,101677.59
2023-05-05T23:49:26.049Z,101663.50
2023-05-05T23:51:52.725Z,101669.59
2023-05-05T23:54:19.036Z,101674.28
2023-05-05T23:56:45.772Z,101664.59
2023-05-05T23:59:12.138Z,101660.56
